Time;durP1;ratioP1;P1;durP2;ratioP2;P2;SDS_P1;SDS_P2;PMS_P1;PMS_P2;Temp;Humidity;BMP_temperature;BMP_pressure;BME280_temperature;BME280_humidity;BME280_pressure;Samples;Min_cycle;Max_cycle;Signal;HPM_P1;HPM_P2
2022/07/02 00:00:57;;;;;;;0.00;0.00;;;;;;;14.34;74.07;100634.66;7367947;19;20470;-64
2022/07/02 00:03:29;;;;;;;0.00;0.00;;;;;;;14.27;73.47;100627.03;7368079;19;20017;-64
2022/07/02 00:05:57;;;;;;;0.00;0.00;;;;;;;14.25;74.55;100635.91;7366868;19;20011;-64
2022/07/02 00:08:24;;;;;;;0.00;0.00;;;;;;;14.21;73.83;100635.16;7370050;19;20167;-63
2022/07/02 00:10:55;;;;;;;0.00;0.00;;;;;;;14.19;73.97;100626.50;7370396;19;20471;-64
2022/07/02 00:13:23;;;;;;;0.00;0.00;;;;;;;14.12;74.15;100621.53;7369921;19;20014;-63
2022/07/02 00:15:49;;;;;;;0.00;0.00;;;;;;;14.14;74.28;100628.44;7360866;19;20014;-64
2022/07/02 00:18:15;;;;;;;0.00;0.00;;;;;;;14.12;74.85;100624.16;7358182;19;20006;-64
2022/07/02 00:20:44;;;;;;;0.00;0.00;;;;;;;14.13;74.43;100621.47;7356832;19;20014;-64
2022/07/02 00:23:10;;;;;;;0.00;0.00;;;;;;;14.01;74.30;100607.03;7355937;19;20485;-65
2022/07/02 00:25:42;;;;;;;0.00;0.00;;;;;;;14.13;73.97;100620.59;7349972;19;20014;-64
2022/07/02 00:28:10;;;;;;;0.00;0.00;;;;;;;14.10;75.35;100618.97;7357697;19;20077;-64
2022/07/02 00:30:38;;;;;;;0.00;0.00;;;;;;;14.12;74.66;100629.41;7344486;19;20073;-64
2022/07/02 00:33:04;;;;;;;0.00;0.00;;;;;;;13.98;74.14;100606.28;7353493;19;20676;-63
2022/07/02 00:35:29;;;;;;;0.00;0.00;;;;;;;14.08;75.12;100628.66;7350511;19;20010;-63
2022/07/02 00:37:55;;;;;;;0.00;0.00;;;;;;;14.13;74.64;100625.84;7350444;19;20011;-63
2022/07/02 00:40:21;;;;;;;0.00;0.00;;;;;;;14.13;74.22;100626.72;7353727;19;20041;-63
2022/07/02 00:42:47;;;;;;;0.00;0.00;;;;;;;14.13;73.84;100621.47;7356749;19;20022;-64
2022/07/02 00:45:14;;;;;;;0.00;0.00;;;;;;;14.12;73.52;100625.00;7355023;19;20102;-63
2022/07/02 00:47:41;;;;;;;0.00;0.00;;;;;;;14.11;73.90;100623.31;7355030;19;20002;-63
2022/07/02 00:50:07;;;;;;;0.00;0.00;;;;;;;14.11;74.33;100611.94;7349359;19;20014;-63
2022/07/02 00:52:33;;;;;;;0.00;0.00;;;;;;;14.04;74.09;100606.09;7353230;19;20037;-63
2022/07/02 00:54:59;;;;;;;0.00;0.00;;;;;;;14.09;74.12;100619.00;7352974;19;20011;-63
2022/07/02 00:57:24;;;;;;;0.03;0.03;;;;;;;14.08;74.22;100609.44;7357336;19;20060;-63
2022/07/02 00:59:50;;;;;;;0.00;0.00;;;;;;;14.03;73.84;100609.59;7353455;19;20015;-64
2022/07/02 01:02:17;;;;;;;0.00;0.00;;;;;;;14.02;73.97;100619.25;7352526;19;20023;-64
2022/07/02 01:04:44;;;;;;;0.00;0.00;;;;;;;13.96;74.74;100602.88;7341997;19;21766;-64
2022/07/02 01:07:14;;;;;;;0.00;0.00;;;;;;;13.98;74.31;100616.78;7357875;19;20035;-63
2022/07/02 01:12:27;;;;;;;0.00;0.00;;;;;;;13.94;73.95;100620.47;7358006;19;20473;-63
2022/07/02 01:14:54;;;;;;;0.00;0.00;;;;;;;13.94;74.07;100623.09;7362073;19;20734;-63
2022/07/02 01:17:20;;;;;;;0.00;0.00;;;;;;;13.93;74.25;100621.38;7362161;19;21275;-64
2022/07/02 01:19:45;;;;;;;0.03;0.03;;;;;;;13.94;72.83;100620.47;7355509;19;21050;-63
2022/07/02 01:22:38;;;;;;;0.00;0.00;;;;;;;13.98;72.60;100622.06;7363615;19;20021;-63
2022/07/02 01:25:05;;;;;;;0.00;0.00;;;;;;;13.94;74.08;100625.72;7259176;19;2004635;-65
2022/07/02 01:27:30;;;;;;;0.00;0.00;;;;;;;13.96;73.89;100631.75;7357006;19;21055;-64
2022/07/02 01:29:56;;;;;;;0.10;0.10;;;;;;;13.97;73.66;100631.69;7360638;19;20042;-63
2022/07/02 01:32:21;;;;;;;0.10;0.10;;;;;;;13.98;73.18;100633.41;7361559;19;20025;-64
2022/07/02 01:34:50;;;;;;;0.00;0.00;;;;;;;14.00;73.92;100636.00;7361313;19;20024;-64
2022/07/02 01:37:18;;;;;;;0.03;0.03;;;;;;;14.00;74.01;100643.88;7362121;19;20135;-63
2022/07/02 01:39:46;;;;;;;0.00;0.00;;;;;;;13.97;73.22;100625.59;7363988;19;20010;-63
2022/07/02 01:42:12;;;;;;;0.00;0.00;;;;;;;14.00;73.24;100631.59;7361743;19;20037;-64
2022/07/02 01:44:38;;;;;;;0.00;0.00;;;;;;;14.00;73.35;100631.59;7362843;19;20324;-63
2022/07/02 01:47:09;;;;;;;0.00;0.00;;;;;;;13.92;72.58;100606.53;7362774;19;20035;-63
2022/07/02 01:49:36;;;;;;;0.00;0.00;;;;;;;14.01;73.04;100633.28;7362675;19;20010;-63
2022/07/02 01:52:02;;;;;;;0.00;0.00;;;;;;;14.03;73.60;100626.22;7360958;19;20058;-63
2022/07/02 01:54:28;;;;;;;0.00;0.00;;;;;;;14.03;73.94;100630.59;7362788;19;20030;-64
2022/07/02 01:56:53;;;;;;;0.00;0.00;;;;;;;14.03;74.02;100630.59;7360144;19;20014;-63
2022/07/02 01:59:19;;;;;;;0.00;0.00;;;;;;;13.91;73.37;100596.97;7353849;19;20014;-64
2022/07/02 02:01:45;;;;;;;0.00;0.00;;;;;;;14.02;73.74;100623.66;7363314;19;20148;-63
2022/07/02 02:04:11;;;;;;;0.00;0.00;;;;;;;14.01;74.24;100622.78;7364804;19;20010;-63
2022/07/02 02:06:37;;;;;;;0.00;0.00;;;;;;;13.98;73.52;100619.41;7362689;19;20019;-64
2022/07/02 02:09:03;;;;;;;0.00;0.00;;;;;;;13.89;73.81;100606.63;7361719;19;20968;-64
2022/07/02 02:11:29;;;;;;;0.00;0.00;;;;;;;13.97;73.93;100622.97;7362107;19;21254;-64
2022/07/02 02:13:57;;;;;;;0.00;0.00;;;;;;;13.94;74.05;100620.47;7360190;19;20017;-64
2022/07/02 02:16:26;;;;;;;0.00;0.00;;;;;;;13.91;74.22;100620.59;7362885;19;20029;-63
2022/07/02 02:18:53;;;;;;;0.00;0.00;;;;;;;13.90;72.64;100618.88;7362953;19;20026;-63
2022/07/02 02:21:19;;;;;;;0.00;0.00;;;;;;;13.87;73.03;100619.84;7362250;19;20023;-64
2022/07/02 02:23:44;;;;;;;0.00;0.00;;;;;;;13.75;73.48;100612.44;7361485;19;20031;-63
2022/07/02 02:26:10;;;;;;;0.00;0.00;;;;;;;13.82;73.13;100620.91;7362716;19;20023;-64
2022/07/02 02:28:35;;;;;;;0.00;0.00;;;;;;;13.79;74.21;100619.28;7359944;19;20015;-63
2022/07/02 02:31:01;;;;;;;0.00;0.00;;;;;;;13.76;74.24;100624.63;7360214;19;20238;-64
2022/07/02 02:33:26;;;;;;;0.05;0.05;;;;;;;13.61;72.95;100597.19;7357802;19;20010;-64
2022/07/02 02:35:52;;;;;;;0.00;0.00;;;;;;;13.58;73.82;100606.94;7362487;19;20086;-64
2022/07/02 02:38:17;;;;;;;0.00;0.00;;;;;;;13.67;73.41;100617.09;7358761;19;20019;-63
2022/07/02 02:40:43;;;;;;;0.00;0.00;;;;;;;13.65;73.40;100629.44;7359360;19;20017;-63
2022/07/02 02:43:08;;;;;;;0.00;0.00;;;;;;;13.65;74.12;100626.81;7362563;19;20032;-63
2022/07/02 02:45:33;;;;;;;0.00;0.00;;;;;;;13.63;73.80;100624.22;7362762;19;20010;-64
2022/07/02 02:47:59;;;;;;;0.00;0.00;;;;;;;13.65;73.95;100624.19;7362981;19;21209;-64
2022/07/02 02:50:25;;;;;;;0.00;0.00;;;;;;;13.64;73.85;100623.31;7360091;19;20018;-64
2022/07/02 02:52:50;;;;;;;0.00;0.00;;;;;;;13.65;73.56;100619.78;7361417;19;20010;-64
2022/07/02 02:55:16;;;;;;;0.00;0.00;;;;;;;13.64;73.92;100633.81;7360097;19;20010;-64
2022/07/02 02:57:41;;;;;;;0.00;0.00;;;;;;;13.62;73.67;100630.38;7360882;19;20015;-64
2022/07/02 03:00:07;;;;;;;0.00;0.00;;;;;;;13.61;73.65;100628.69;7361554;19;20010;-64
2022/07/02 03:02:33;;;;;;;0.00;0.00;;;;;;;13.62;72.57;100629.53;7362735;19;20010;-64
2022/07/02 03:04:58;;;;;;;0.00;0.00;;;;;;;13.60;73.63;100626.97;7351758;19;20010;-63
2022/07/02 03:07:23;;;;;;;0.00;0.00;;;;;;;13.61;74.10;100625.19;7358636;19;20011;-63
2022/07/02 03:09:49;;;;;;;0.00;0.00;;;;;;;13.62;74.10;100634.78;7363038;19;20494;-64
2022/07/02 03:12:14;;;;;;;0.00;0.00;;;;;;;13.61;74.41;100628.69;7362526;19;20740;-64
2022/07/02 03:14:40;;;;;;;0.00;0.00;;;;;;;13.66;73.86;100636.38;7360638;19;20007;-63
2022/07/02 03:17:05;;;;;;;0.00;0.00;;;;;;;13.68;74.02;100640.66;7363174;19;20637;-64
2022/07/02 03:19:30;;;;;;;0.00;0.00;;;;;;;13.71;73.90;100632.66;7349288;19;20010;-64
2022/07/02 03:21:56;;;;;;;0.00;0.00;;;;;;;13.73;73.43;100638.72;7359425;19;20014;-63
2022/07/02 03:24:22;;;;;;;0.00;0.00;;;;;;;13.72;73.81;100633.53;7358321;19;20064;-63
2022/07/02 03:26:48;;;;;;;0.00;0.00;;;;;;;13.77;73.47;100637.69;7361411;19;20007;-64
2022/07/02 03:29:13;;;;;;;0.00;0.00;;;;;;;13.80;73.54;100647.22;7358529;19;20026;-64
2022/07/02 03:31:39;;;;;;;0.00;0.00;;;;;;;13.81;72.95;100641.06;7359381;19;20017;-63
2022/07/02 03:34:04;;;;;;;0.00;0.00;;;;;;;13.84;73.28;100645.31;7357911;19;20052;-63
2022/07/02 03:36:30;;;;;;;0.00;0.00;;;;;;;13.82;73.00;100647.16;7357623;19;20449;-64
2022/07/02 03:38:55;;;;;;;0.00;0.00;;;;;;;13.86;73.29;100643.53;7359483;19;20006;-63
2022/07/02 03:41:21;;;;;;;0.00;0.00;;;;;;;13.87;73.52;100647.84;7358098;19;20014;-64
2022/07/02 03:43:46;;;;;;;0.00;0.00;;;;;;;13.87;73.36;100647.84;7356087;19;20030;-64
2022/07/02 03:46:12;;;;;;;0.00;0.00;;;;;;;13.88;72.83;100641.69;7355842;19;20014;-64
2022/07/02 03:48:38;;;;;;;0.00;0.00;;;;;;;13.85;73.22;100647.06;7360725;19;20014;-62
2022/07/02 03:51:03;;;;;;;0.10;0.10;;;;;;;13.90;72.81;100650.38;7369510;19;20073;-64
2022/07/02 03:53:29;;;;;;;0.00;0.00;;;;;;;13.88;73.34;100647.78;7367063;19;20034;-64
2022/07/02 03:55:54;;;;;;;0.00;0.00;;;;;;;13.89;73.32;100654.78;7367957;19;20019;-64
2022/07/02 03:58:19;;;;;;;0.00;0.00;;;;;;;13.89;73.21;100651.25;7367751;19;20014;-63
2022/07/02 04:00:45;;;;;;;0.00;0.00;;;;;;;13.89;73.10;100653.88;7369354;19;20011;-63
2022/07/02 04:03:10;;;;;;;0.00;0.00;;;;;;;13.88;73.18;100652.19;7365749;19;20014;-63
2022/07/02 04:05:36;;;;;;;0.00;0.00;;;;;;;13.87;73.55;100658.34;7366551;19;20007;-64
2022/07/02 04:08:01;;;;;;;0.00;0.00;;;;;;;13.87;73.48;100653.09;7367303;19;20044;-64
2022/07/02 04:10:27;;;;;;;0.10;0.10;;;;;;;13.86;73.61;100659.28;7366645;19;20010;-64
2022/07/02 04:12:52;;;;;;;0.00;0.00;;;;;;;13.77;73.13;100645.56;7369105;19;20014;-64
2022/07/02 04:15:17;;;;;;;0.00;0.00;;;;;;;13.83;73.09;100654.13;7364387;19;20442;-63
2022/07/02 04:17:43;;;;;;;0.10;0.10;;;;;;;13.83;73.32;100659.38;7368215;19;20010;-64
2022/07/02 04:20:09;;;;;;;0.00;0.00;;;;;;;13.83;73.07;100651.50;7365968;19;20022;-64
2022/07/02 04:22:34;;;;;;;0.00;0.00;;;;;;;13.85;72.94;100653.16;7368124;19;20015;-64
2022/07/02 04:24:59;;;;;;;0.00;0.00;;;;;;;13.85;72.80;100657.56;7367425;19;20095;-64
2022/07/02 04:27:25;;;;;;;0.00;0.00;;;;;;;13.84;73.34;100653.19;7365684;19;20014;-63
2022/07/02 04:29:50;;;;;;;0.00;0.00;;;;;;;13.83;72.66;100659.38;7365857;19;20612;-64
2022/07/02 04:32:16;;;;;;;0.00;0.00;;;;;;;13.82;72.31;100658.53;7363847;19;20100;-63
2022/07/02 04:34:41;;;;;;;0.00;0.00;;;;;;;13.81;72.53;100666.47;7367594;19;20025;-64
2022/07/02 04:37:06;;;;;;;0.00;0.00;;;;;;;13.79;72.29;100665.63;7367466;19;20628;-63
2022/07/02 04:39:32;;;;;;;0.00;0.00;;;;;;;13.77;72.97;100665.72;7367970;19;20462;-63
2022/07/02 04:41:58;;;;;;;0.00;0.00;;;;;;;13.72;72.73;100668.50;7367349;19;20014;-64
2022/07/02 04:44:26;;;;;;;0.00;0.00;;;;;;;13.74;72.66;100674.56;7366235;19;20015;-63
2022/07/02 04:46:53;;;;;;;0.00;0.00;;;;;;;13.71;73.46;100668.56;7367920;19;20595;-64
2022/07/02 04:49:18;;;;;;;0.00;0.00;;;;;;;13.69;73.00;100663.38;7366597;19;20492;-63
2022/07/02 04:51:44;;;;;;;0.00;0.00;;;;;;;13.67;72.82;100665.19;7368008;19;20007;-64
2022/07/02 04:54:09;;;;;;;0.00;0.00;;;;;;;13.66;72.55;100671.34;7367594;19;20122;-64
2022/07/02 04:56:35;;;;;;;0.00;0.00;;;;;;;13.63;72.98;100668.81;7367191;19;20473;-64
2022/07/02 04:59:00;;;;;;;0.00;0.00;;;;;;;13.59;73.13;100667.25;7367645;19;20014;-63
2022/07/02 05:01:28;;;;;;;0.00;0.00;;;;;;;13.55;73.06;100665.63;7366334;19;20010;-63
2022/07/02 05:03:54;;;;;;;0.00;0.00;;;;;;;13.48;72.83;100651.00;7367628;19;20021;-63
2022/07/02 05:06:21;;;;;;;0.00;0.00;;;;;;;13.42;73.05;100653.84;7366079;19;20041;-64
2022/07/02 05:08:47;;;;;;;0.00;0.00;;;;;;;13.49;72.80;100660.59;7366998;19;20924;-63
2022/07/02 05:11:15;;;;;;;0.00;0.00;;;;;;;13.47;73.09;100659.78;7367181;19;20014;-63
2022/07/02 05:13:42;;;;;;;0.00;0.00;;;;;;;13.43;72.90;100666.03;7366446;19;20011;-64
2022/07/02 05:16:07;;;;;;;0.10;0.10;;;;;;;13.40;73.50;100669.66;7367383;19;20025;-64
2022/07/02 05:18:33;;;;;;;0.00;0.00;;;;;;;13.39;73.73;100674.97;7365382;19;20014;-64
2022/07/02 05:20:58;;;;;;;0.00;0.00;;;;;;;13.38;73.35;100660.09;7364194;19;20010;-64
2022/07/02 05:23:24;;;;;;;0.00;0.00;;;;;;;13.38;73.64;100665.34;7366143;19;20022;-63
2022/07/02 05:25:49;;;;;;;0.00;0.00;;;;;;;13.35;73.61;100660.22;7366885;19;20010;-64
2022/07/02 05:28:14;;;;;;;0.00;0.00;;;;;;;13.36;73.80;100654.06;7365471;19;20111;-63
2022/07/02 05:30:40;;;;;;;0.00;0.00;;;;;;;13.37;73.86;100661.03;7366392;19;20043;-64
2022/07/02 05:33:05;;;;;;;0.00;0.00;;;;;;;13.37;73.94;100667.13;7364244;19;20043;-64
2022/07/02 05:35:31;;;;;;;0.00;0.00;;;;;;;13.38;74.39;100658.38;7365576;19;20014;-64
2022/07/02 05:37:56;;;;;;;0.00;0.00;;;;;;;13.40;74.19;100660.94;7364076;19;20009;-64
2022/07/02 05:40:22;;;;;;;0.00;0.00;;;;;;;13.41;74.03;100679.22;7364775;19;20065;-63
2022/07/02 05:42:47;;;;;;;0.00;0.00;;;;;;;13.41;74.30;100668.72;7365673;19;20490;-63
2022/07/02 05:45:12;;;;;;;0.00;0.00;;;;;;;13.37;74.74;100655.78;7365836;19;20089;-63
2022/07/02 05:47:38;;;;;;;0.00;0.00;;;;;;;13.39;73.74;100659.22;7366525;19;20104;-64
2022/07/02 05:50:04;;;;;;;0.00;0.00;;;;;;;13.49;73.96;100692.09;7366419;19;20029;-64
2022/07/02 05:52:29;;;;;;;0.00;0.00;;;;;;;13.53;74.39;100677.94;7362092;19;20620;-63
2022/07/02 05:54:55;;;;;;;0.00;0.00;;;;;;;13.55;74.16;100681.38;7365821;19;20010;-63
2022/07/02 05:57:20;;;;;;;0.00;0.00;;;;;;;13.49;73.74;100661.47;7364456;19;20014;-63
2022/07/02 05:59:46;;;;;;;0.00;0.00;;;;;;;13.61;74.28;100675.91;7360677;19;20591;-64
2022/07/02 06:02:11;;;;;;;0.00;0.00;;;;;;;13.65;74.23;100677.50;7364708;19;20779;-64
2022/07/02 06:04:36;;;;;;;0.03;0.03;;;;;;;13.69;73.82;100676.50;7365058;19;20668;-64
2022/07/02 06:09:47;;;;;;;0.00;0.00;;;;;;;13.75;74.03;100683.28;7363876;19;20021;-63
2022/07/02 06:12:12;;;;;;;0.00;0.00;;;;;;;13.79;73.76;100690.16;7360722;19;21250;-63
2022/07/02 06:14:38;;;;;;;0.00;0.00;;;;;;;13.82;74.03;100694.41;7361216;19;20014;-64
2022/07/02 06:17:03;;;;;;;0.00;0.00;;;;;;;13.80;73.80;100694.47;7363960;19;20039;-63
2022/07/02 06:19:29;;;;;;;0.00;0.00;;;;;;;13.92;73.46;100701.03;7363935;19;20007;-64
2022/07/02 06:21:54;;;;;;;0.00;0.00;;;;;;;13.95;73.76;100700.94;7361522;19;20637;-64
2022/07/02 06:24:20;;;;;;;0.00;0.00;;;;;;;13.98;73.52;100708.69;7360997;19;20018;-63
2022/07/02 06:26:45;;;;;;;0.00;0.00;;;;;;;14.02;73.65;100715.53;7364482;19;20018;-64
2022/07/02 06:29:11;;;;;;;0.00;0.00;;;;;;;14.08;73.56;100717.09;7361253;19;20021;-63
2022/07/02 06:31:36;;;;;;;0.00;0.00;;;;;;;14.12;73.26;100711.66;7365112;19;20014;-64
2022/07/02 06:34:03;;;;;;;0.00;0.00;;;;;;;14.15;72.99;100714.19;7361857;19;20018;-64
2022/07/02 06:36:28;;;;;;;0.00;0.00;;;;;;;14.21;73.02;100715.72;7364682;19;20018;-64
2022/07/02 06:38:53;;;;;;;0.00;0.00;;;;;;;14.25;73.26;100723.44;7361924;19;20779;-63
2022/07/02 06:44:04;;;;;;;0.00;0.00;;;;;;;14.26;73.10;100712.00;7362232;19;20094;-64
2022/07/02 06:46:30;;;;;;;0.00;0.00;;;;;;;14.32;73.18;100728.44;7363771;19;20045;-63
2022/07/02 06:48:55;;;;;;;0.08;0.08;;;;;;;14.43;72.88;100742.03;7364372;19;20006;-63
2022/07/02 06:51:20;;;;;;;0.10;0.10;;;;;;;14.51;72.96;100747.91;7362965;19;20022;-63
2022/07/02 06:53:46;;;;;;;0.00;0.00;;;;;;;14.46;72.75;100740.16;7363598;19;20014;-64
2022/07/02 06:56:12;;;;;;;0.00;0.00;;;;;;;14.66;72.44;100760.44;7364284;19;22896;-63
2022/07/02 06:58:37;;;;;;;0.00;0.00;;;;;;;14.73;72.57;100764.53;7363671;19;20011;-64
2022/07/02 07:01:03;;;;;;;0.00;0.00;;;;;;;14.84;72.63;100768.53;7362994;19;20011;-63
2022/07/02 07:03:28;;;;;;;0.00;0.00;;;;;;;14.92;72.28;100769.09;7360954;19;20037;-63
2022/07/02 07:05:53;;;;;;;0.00;0.00;;;;;;;15.00;71.69;100770.50;7360180;19;20108;-63
2022/07/02 07:08:19;;;;;;;0.00;0.00;;;;;;;15.09;71.80;100771.91;7362872;19;20022;-63
2022/07/02 07:10:45;;;;;;;0.00;0.00;;;;;;;15.17;71.41;100780.34;7363663;19;20022;-63
2022/07/02 07:13:11;;;;;;;0.00;0.00;;;;;;;15.25;71.77;100778.25;7362256;19;20941;-63
2022/07/02 07:15:36;;;;;;;0.00;0.00;;;;;;;15.35;71.42;100775.25;7358365;19;20198;-63
2022/07/02 07:18:02;;;;;;;0.00;0.00;;;;;;;15.42;71.26;100780.19;7361664;19;20007;-63
2022/07/02 07:20:29;;;;;;;0.00;0.00;;;;;;;15.48;71.20;100773.81;7363119;19;20003;-63
2022/07/02 07:22:55;;;;;;;0.00;0.00;;;;;;;15.59;70.80;100787.38;7360722;19;20013;-63
2022/07/02 07:25:21;;;;;;;0.10;0.10;;;;;;;15.65;69.96;100797.69;7367443;19;20055;-63
2022/07/02 07:27:48;;;;;;;0.10;0.10;;;;;;;15.70;69.73;100790.44;7365286;19;20022;-63
2022/07/02 07:30:14;;;;;;;0.00;0.00;;;;;;;15.76;69.59;100794.59;7369432;19;20030;-63
2022/07/02 07:32:39;;;;;;;0.00;0.00;;;;;;;15.78;69.27;100793.63;7368924;19;20018;-63
2022/07/02 07:35:05;;;;;;;0.00;0.00;;;;;;;15.83;69.91;100786.38;7365265;19;20050;-63
2022/07/02 07:37:31;;;;;;;0.00;0.00;;;;;;;15.89;69.92;100790.50;7367566;19;20035;-63
2022/07/02 07:39:56;;;;;;;0.00;0.00;;;;;;;15.97;69.42;100795.47;7364738;19;20749;-63
2022/07/02 07:42:25;;;;;;;0.00;0.00;;;;;;;16.06;69.46;100792.41;7367619;19;20019;-63
2022/07/02 07:44:51;;;;;;;0.10;0.10;;;;;;;16.10;68.66;100788.72;7364874;19;20649;-63
2022/07/02 07:47:16;;;;;;;0.10;0.10;;;;;;;16.19;68.34;100793.59;7368446;19;20021;-63
2022/07/02 07:49:42;;;;;;;0.00;0.00;;;;;;;16.26;68.44;100804.69;7368199;19;20011;-63
2022/07/02 07:52:07;;;;;;;0.00;0.00;;;;;;;16.16;68.31;100779.69;7369196;19;20013;-63
2022/07/02 07:54:33;;;;;;;0.00;0.00;;;;;;;16.30;68.39;100809.75;7362799;19;20011;-63
2022/07/02 07:56:59;;;;;;;0.00;0.00;;;;;;;16.31;68.93;100808.84;7364909;19;20038;-63
2022/07/02 07:59:24;;;;;;;0.10;0.10;;;;;;;16.37;67.73;100809.47;7364803;19;20017;-63
2022/07/02 08:01:50;;;;;;;0.00;0.00;;;;;;;16.40;67.69;100806.72;7354850;19;20011;-63
2022/07/02 08:04:15;;;;;;;0.00;0.00;;;;;;;16.43;67.49;100812.72;7366256;19;20082;-63
2022/07/02 08:06:41;;;;;;;0.10;0.10;;;;;;;16.47;67.31;100814.28;7362429;19;20014;-63
2022/07/02 08:09:06;;;;;;;0.00;0.00;;;;;;;16.49;67.42;100801.03;7366925;19;20010;-63
2022/07/02 08:11:32;;;;;;;0.00;0.00;;;;;;;16.47;68.11;100805.50;7367466;19;20033;-63
2022/07/02 08:13:57;;;;;;;0.00;0.00;;;;;;;16.57;67.95;100814.72;7366094;19;20014;-63
2022/07/02 08:16:23;;;;;;;0.00;0.00;;;;;;;16.63;67.06;100814.47;7364448;19;20003;-63
2022/07/02 08:18:48;;;;;;;0.00;0.00;;;;;;;16.69;67.07;100819.44;7364059;19;20149;-63
2022/07/02 08:21:14;;;;;;;0.10;0.10;;;;;;;16.79;66.95;100815.47;7363572;19;20010;-63
2022/07/02 08:23:40;;;;;;;0.10;0.10;;;;;;;16.89;67.14;100815.91;7367197;19;20747;-63
2022/07/02 08:26:05;;;;;;;0.00;0.00;;;;;;;16.98;67.57;100819.88;7367247;19;20007;-63
2022/07/02 08:28:30;;;;;;;0.00;0.00;;;;;;;17.09;66.23;100822.88;7365268;19;20686;-63
2022/07/02 08:30:56;;;;;;;0.10;0.10;;;;;;;17.16;66.03;100818.16;7362984;19;20019;-63
2022/07/02 08:33:22;;;;;;;0.00;0.00;;;;;;;17.21;65.41;100822.28;7366846;19;20010;-63
2022/07/02 08:35:47;;;;;;;0.00;0.00;;;;;;;17.23;65.82;100809.84;7363065;19;20022;-63
2022/07/02 08:38:13;;;;;;;0.00;0.00;;;;;;;17.25;66.08;100815.94;7364156;19;20439;-63
2022/07/02 08:40:42;;;;;;;0.10;0.10;;;;;;;17.34;65.49;100812.84;7362404;19;20011;-63
2022/07/02 08:43:10;;;;;;;0.00;0.00;;;;;;;17.28;65.81;100805.19;7364688;19;20018;-63
2022/07/02 08:45:36;;;;;;;0.08;0.08;;;;;;;17.46;65.15;100821.09;7364520;19;20457;-63
2022/07/02 08:48:03;;;;;;;0.00;0.00;;;;;;;17.46;65.75;100802.59;7365170;19;20478;-62
2022/07/02 08:50:30;;;;;;;;;;;;;;;17.67;66.32;100820.00;7365219;19;20886;-63
2022/07/02 08:52:55;;;;;;;0.00;0.00;;;;;;;17.68;63.04;100821.72;7368366;19;20003;-63
2022/07/02 08:55:22;;;;;;;0.10;0.10;;;;;;;17.74;63.36;100821.47;7363424;19;20572;-62
2022/07/02 08:57:49;;;;;;;0.10;0.10;;;;;;;17.76;63.78;100814.31;7361471;19;20013;-63
2022/07/02 09:00:16;;;;;;;0.00;0.00;;;;;;;17.77;64.28;100825.72;7363414;19;20015;-63
2022/07/02 09:02:42;;;;;;;0.00;0.00;;;;;;;17.77;63.44;100818.66;7365877;19;20034;-63
2022/07/02 09:05:10;;;;;;;0.00;0.00;;;;;;;17.76;64.06;100822.22;7365992;19;20011;-63
2022/07/02 09:07:37;;;;;;;0.00;0.00;;;;;;;17.65;63.66;100819.25;7363133;19;20370;-63
2022/07/02 09:10:03;;;;;;;0.00;0.00;;;;;;;17.61;64.01;100805.34;7367776;19;20029;-63
2022/07/02 09:12:29;;;;;;;0.00;0.00;;;;;;;17.76;65.10;100826.66;7364999;19;20014;-63
2022/07/02 09:14:55;;;;;;;0.00;0.00;;;;;;;17.81;64.55;100816.72;7365006;19;20047;-62
2022/07/02 09:17:20;;;;;;;0.00;0.00;;;;;;;17.87;63.85;100821.69;7365228;19;20018;-63
2022/07/02 09:19:46;;;;;;;0.00;0.00;;;;;;;17.91;63.16;100828.53;7368374;19;20025;-63
2022/07/02 09:22:12;;;;;;;0.05;0.05;;;;;;;17.97;63.06;100830.00;7366064;19;20070;-63
2022/07/02 09:24:42;;;;;;;0.10;0.10;;;;;;;18.03;63.81;100832.31;7366165;19;20068;-63
2022/07/02 09:27:09;;;;;;;0.00;0.00;;;;;;;18.11;62.20;100827.50;7364847;19;20093;-63
2022/07/02 09:29:50;;;;;;;0.00;0.00;;;;;;;18.26;63.53;100824.06;7365470;19;20038;-63
2022/07/02 09:32:16;;;;;;;0.10;0.10;;;;;;;18.37;62.10;100826.97;7363586;19;20055;-64
2022/07/02 09:34:53;;;;;;;0.00;0.00;;;;;;;18.59;62.96;100820.53;7365913;19;20053;-63
2022/07/02 09:37:24;;;;;;;0.00;0.00;;;;;;;18.79;62.45;100822.97;7363280;19;20048;-63
2022/07/02 09:39:51;;;;;;;0.00;0.00;;;;;;;19.01;59.84;100835.00;7367159;19;20146;-63
2022/07/02 09:42:28;;;;;;;0.10;0.10;;;;;;;19.22;62.15;100846.22;7365385;19;20070;-63
2022/07/02 09:44:54;;;;;;;0.10;0.10;;;;;;;19.22;61.84;100841.78;7366649;19;20749;-63
2022/07/02 09:47:49;;;;;;;0.00;0.00;;;;;;;19.18;62.74;100835.78;7363893;19;20026;-63
2022/07/02 09:50:17;;;;;;;0.00;0.00;;;;;;;18.98;62.66;100838.69;7362685;19;20074;-63
2022/07/02 09:52:56;;;;;;;0.00;0.00;;;;;;;18.80;62.15;100824.69;7366654;19;20006;-63
2022/07/02 09:55:30;;;;;;;0.00;0.00;;;;;;;18.67;63.72;100828.91;7364797;19;20002;-63
2022/07/02 09:58:00;;;;;;;0.03;0.03;;;;;;;18.54;65.34;100814.63;7360966;19;20006;-63
2022/07/02 10:00:28;;;;;;;0.00;0.00;;;;;;;18.55;64.29;100818.97;7364768;19;20010;-63
2022/07/02 10:02:56;;;;;;;0.10;0.10;;;;;;;18.65;64.10;100809.59;7367135;19;20175;-64
2022/07/02 10:05:33;;;;;;;0.00;0.00;;;;;;;18.95;64.86;100830.06;7363568;19;20010;-64
2022/07/02 10:08:01;;;;;;;0.00;0.00;;;;;;;19.25;63.51;100825.69;7366381;19;20006;-64
2022/07/02 10:10:30;;;;;;;;;;;;;;;19.74;64.92;100828.19;7365748;19;20098;-63
2022/07/02 10:12:56;;;;;;;0.00;0.00;;;;;;;19.98;60.20;100822.41;7366315;19;19937;-63
2022/07/02 10:15:24;;;;;;;0.00;0.00;;;;;;;20.24;59.46;100820.81;7365044;19;20019;-64
2022/07/02 10:17:54;;;;;;;0.00;0.00;;;;;;;20.53;58.71;100821.69;7365167;19;20010;-64
2022/07/02 10:20:20;;;;;;;0.00;0.00;;;;;;;20.68;58.64;100826.03;7366915;19;20029;-64
2022/07/02 10:22:46;;;;;;;0.10;0.10;;;;;;;20.78;57.29;100821.84;7367505;19;20011;-64
2022/07/02 10:25:13;;;;;;;0.00;0.00;;;;;;;20.90;55.92;100828.19;7364819;19;20079;-64
2022/07/02 10:27:40;;;;;;;0.00;0.00;;;;;;;20.86;55.25;100832.84;7366104;19;20563;-63
2022/07/02 10:30:05;;;;;;;0.00;0.00;;;;;;;20.80;55.70;100843.84;7366518;19;20011;-64
2022/07/02 10:33:05;;;;;;;0.00;0.00;;;;;;;20.75;57.95;100840.63;7365410;19;20038;-63
2022/07/02 10:35:33;;;;;;;0.00;0.00;;;;;;;20.55;56.01;100841.03;7262906;19;2004398;-63
2022/07/02 10:38:00;;;;;;;0.10;0.10;;;;;;;20.39;56.22;100828.69;7364771;19;20935;-64
2022/07/02 10:40:27;;;;;;;0.10;0.10;;;;;;;20.29;55.14;100830.19;7365318;19;20014;-63
2022/07/02 10:42:59;;;;;;;0.00;0.00;;;;;;;20.18;55.54;100816.75;7365274;19;20029;-63
2022/07/02 10:45:26;;;;;;;0.00;0.00;;;;;;;20.24;57.16;100805.75;7365766;19;20017;-63
2022/07/02 10:48:05;;;;;;;0.00;0.00;;;;;;;20.75;58.64;100830.03;7365848;19;20030;-63
2022/07/02 10:50:34;;;;;;;0.00;0.00;;;;;;;21.24;55.93;100834.84;7364097;19;20037;-63
2022/07/02 10:53:18;;;;;;;0.00;0.00;;;;;;;21.73;54.55;100831.63;7364509;19;20037;-63
2022/07/02 10:55:59;;;;;;;0.00;0.00;;;;;;;22.05;53.44;100820.59;7366554;19;20010;-63
2022/07/02 10:58:35;;;;;;;0.05;0.05;;;;;;;22.45;55.47;100819.56;7364431;19;20022;-63
2022/07/02 11:01:14;;;;;;;0.00;0.00;;;;;;;22.75;54.82;100826.34;7364545;19;20002;-63
2022/07/02 11:03:57;;;;;;;0.10;0.10;;;;;;;23.11;55.37;100828.16;7363643;19;20026;-64
2022/07/02 11:06:27;;;;;;;0.10;0.10;;;;;;;23.43;49.84;100817.81;7364915;19;20588;-63
2022/07/02 11:09:12;;;;;;;0.10;0.10;;;;;;;24.10;55.01;100816.34;7364110;19;20006;-64
2022/07/02 11:11:40;;;;;;;0.00;0.00;;;;;;;24.46;47.33;100824.16;7363843;19;20015;-64
2022/07/02 11:14:15;;;;;;;0.08;0.08;;;;;;;25.01;48.45;100822.41;7360914;19;20010;-63
2022/07/02 11:16:49;;;;;;;0.00;0.00;;;;;;;25.24;48.28;100819.69;7365035;19;20011;-63
2022/07/02 11:19:24;;;;;;;0.00;0.00;;;;;;;25.27;45.45;100819.47;7362167;19;20014;-64
2022/07/02 11:21:53;;;;;;;0.10;0.10;;;;;;;25.18;44.75;100826.41;7363844;19;20084;-63
2022/07/02 11:24:21;;;;;;;0.10;0.10;;;;;;;25.25;44.24;100816.94;7363928;19;20034;-63
2022/07/02 11:26:46;;;;;;;0.10;0.10;;;;;;;25.46;43.55;100819.63;7364185;19;20116;-64
2022/07/02 11:29:12;;;;;;;0.10;0.10;;;;;;;25.73;43.56;100800.41;7364136;19;20018;-64
2022/07/02 11:31:42;;;;;;;0.10;0.10;;;;;;;26.28;46.15;100810.91;7363766;19;21193;-64
2022/07/02 11:34:08;;;;;;;0.10;0.10;;;;;;;26.64;40.96;100801.50;7362475;19;20451;-63